Time;durP1;ratioP1;P1;durP2;ratioP2;P2;SDS_P1;SDS_P2;PMS_P1;PMS_P2;Temp;Humidity;BMP_temperature;BMP_pressure;BME280_temperature;BME280_humidity;BME280_pressure;Samples;Min_cycle;Max_cycle;Signal;HPM_P1;HPM_P2
2022/12/17 13:06:54;;;;;;;32.20;18.90;;;;;;;7.41;43.86;97342.88;2067009;28;20201;-63
2022/12/17 13:08:07;;;;;;;32.83;18.70;;;;;;;7.59;43.80;97341.66;2064862;28;20225;-62
2022/12/17 13:09:15;;;;;;;36.33;19.83;;;;;;;8.17;42.06;97336.00;2065138;28;20767;-62
2022/12/17 13:10:29;;;;;;;36.28;20.67;;;;;;;8.36;41.13;97322.53;2070390;28;20224;-62
2022/12/17 13:11:37;;;;;;;40.88;20.15;;;;;;;8.93;41.11;97321.09;2069639;28;20413;-62
2022/12/17 13:12:46;;;;;;;35.90;19.45;;;;;;;8.88;40.77;97321.22;2067260;28;20218;-62
2022/12/17 13:13:54;;;;;;;33.42;19.48;;;;;;;9.44;40.36;97319.66;2073794;28;20205;-60
2022/12/17 13:15:05;;;;;;;27.30;17.08;;;;;;;9.15;40.14;97322.22;2066274;28;20206;-61
2022/12/17 13:16:44;;;;;;;30.10;17.92;;;;;;;8.78;40.53;97317.13;2065198;28;20201;-61
2022/12/17 13:18:03;;;;;;;103.28;48.42;;;;;;;7.29;41.23;97320.59;2062699;28;20201;-61
2022/12/17 13:19:19;;;;;;;25.35;16.27;;;;;;;6.38;44.03;97333.53;2067280;28;20717;-62
2022/12/17 13:20:25;;;;;;;29.15;16.85;;;;;;;6.32;44.79;97333.66;2063249;28;20240;-61
2022/12/17 13:21:31;;;;;;;27.15;16.50;;;;;;;7.45;42.71;97320.28;2064649;28;20230;-60
2022/12/17 13:22:33;;;;;;;29.52;16.92;;;;;;;7.17;43.33;97316.53;2064250;28;20669;-60
2022/12/17 13:23:36;;;;;;;36.95;18.33;;;;;;;6.13;43.90;97314.09;2064956;28;20230;-60
2022/12/17 13:24:38;;;;;;;32.97;17.25;;;;;;;5.67;45.81;97319.06;2065971;28;20240;-61
2022/12/17 13:25:41;;;;;;;30.48;17.50;;;;;;;4.70;47.15;97323.72;2067966;28;20190;-60
2022/12/17 13:26:43;;;;;;;27.58;16.20;;;;;;;4.37;47.87;97318.00;2066206;28;20205;-60
2022/12/17 13:27:46;;;;;;;35.67;19.17;;;;;;;5.44;46.92;97323.72;2062546;28;20256;-62
2022/12/17 13:28:58;;;;;;;28.48;15.50;;;;;;;4.83;47.95;97316.66;2065376;28;20248;-60
2022/12/17 13:30:32;;;;;;;37.53;17.23;;;;;;;4.92;48.48;97320.88;2063322;28;20203;-60
2022/12/17 13:32:00;;;;;;;31.45;16.58;;;;;;;4.41;49.01;97319.69;2061209;28;20659;-60
2022/12/17 13:33:23;;;;;;;28.58;15.82;;;;;;;3.88;49.65;97319.25;2065744;28;20768;-60
2022/12/17 13:34:59;;;;;;;33.15;16.75;;;;;;;4.82;49.24;97311.53;2066730;28;20210;-59
2022/12/17 13:36:17;;;;;;;29.85;16.23;;;;;;;4.73;49.14;97310.72;2067673;28;20210;-59
2022/12/17 13:37:46;;;;;;;32.05;17.08;;;;;;;5.20;48.70;97311.06;2074949;28;20680;-59
2022/12/17 13:38:59;;;;;;;31.60;15.82;;;;;;;5.64;47.74;97306.16;2073221;28;20313;-60
2022/12/17 13:40:16;;;;;;;30.58;17.27;;;;;;;6.05;47.02;97309.03;2066220;28;20212;-60
2022/12/17 13:41:20;;;;;;;31.17;17.75;;;;;;;6.12;47.40;97304.59;2076774;28;20213;-62
2022/12/17 13:42:35;;;;;;;34.95;20.15;;;;;;;6.01;47.94;97310.81;2066418;28;20207;-57
2022/12/17 13:43:49;;;;;;;33.90;19.60;;;;;;;5.72;47.81;97301.69;2071391;28;20672;-56
2022/12/17 13:44:52;;;;;;;137.75;86.25;;;;;;;6.05;47.26;97306.44;2067994;28;20202;-59
2022/12/17 13:45:54;;;;;;;41.75;25.98;;;;;;;5.99;47.27;97311.72;2072026;28;20198;-60
2022/12/17 13:46:59;;;;;;;34.28;18.83;;;;;;;5.53;47.90;97295.94;2073801;28;20198;-59
2022/12/17 13:48:26;;;;;;;29.08;17.35;;;;;;;5.89;47.60;97313.56;2064063;28;20252;-60
2022/12/17 13:49:29;;;;;;;30.98;16.95;;;;;;;6.30;46.41;97304.28;2066465;28;20202;-59
2022/12/17 13:50:30;;;;;;;36.08;18.63;;;;;;;6.37;46.38;97312.81;2066554;28;20206;-59
2022/12/17 13:51:36;;;;;;;34.17;19.17;;;;;;;5.43;47.79;97311.66;2068291;28;20570;-59
2022/12/17 13:52:38;;;;;;;36.15;19.15;;;;;;;5.48;48.46;97315.88;2068265;28;20607;-61
2022/12/17 13:53:39;;;;;;;36.97;19.17;;;;;;;5.51;48.22;97317.56;2068113;28;20229;-59
2022/12/17 13:54:40;;;;;;;32.85;17.98;;;;;;;5.82;47.29;97311.94;2068048;28;20237;-59
2022/12/17 13:55:49;;;;;;;32.67;19.80;;;;;;;6.04;47.11;97318.56;2068128;28;20245;-59
2022/12/17 13:56:51;;;;;;;30.67;19.70;;;;;;;5.95;46.89;97329.00;2068528;28;20353;-59
2022/12/17 13:57:53;;;;;;;34.08;19.00;;;;;;;4.87;48.90;97335.63;2065875;28;20229;-59
2022/12/17 13:58:56;;;;;;;40.35;20.92;;;;;;;5.40;48.65;97334.09;2067772;28;20209;-59
2022/12/17 14:00:01;;;;;;;38.45;20.70;;;;;;;4.89;49.40;97321.78;2067706;28;20241;-59
2022/12/17 14:01:13;;;;;;;39.33;21.45;;;;;;;4.84;49.48;97336.50;2067816;28;20592;-59
2022/12/17 14:02:27;;;;;;;41.22;21.75;;;;;;;5.09;49.41;97337.97;2067759;28;20206;-59
2022/12/17 14:03:32;;;;;;;40.63;21.55;;;;;;;5.07;48.57;97333.66;2066927;28;20264;-59
2022/12/17 14:04:56;;;;;;;38.95;21.35;;;;;;;5.42;48.76;97341.00;2066133;28;20201;-58
2022/12/17 14:05:58;;;;;;;58.63;30.17;;;;;;;6.16;47.81;97343.44;2067653;28;20209;-59
2022/12/17 14:07:04;;;;;;;47.75;26.35;;;;;;;5.48;48.14;97334.00;2068621;28;20194;-59
2022/12/17 14:08:05;;;;;;;41.65;23.15;;;;;;;4.83;49.21;97333.94;2067272;28;20220;-58
2022/12/17 14:09:17;;;;;;;39.50;24.63;;;;;;;4.79;49.22;97340.03;2065667;28;20242;-58
2022/12/17 14:10:19;;;;;;;39.40;20.67;;;;;;;4.71;49.14;97334.91;2067244;28;20676;-58
2022/12/17 14:12:41;;;;;;;39.38;22.27;;;;;;;4.78;49.09;97331.41;2066142;28;20206;-59
2022/12/17 14:13:46;;;;;;;45.85;23.58;;;;;;;4.60;49.83;97339.31;2064433;28;20205;-58
2022/12/17 14:14:51;;;;;;;48.38;24.27;;;;;;;4.70;49.77;97328.03;2066222;28;20226;-58
2022/12/17 14:15:52;;;;;;;44.08;23.42;;;;;;;4.70;49.91;97353.91;2066937;28;20201;-58
2022/12/17 14:16:54;;;;;;;45.90;23.23;;;;;;;4.44;49.77;97348.97;2068446;28;20262;-58
2022/12/17 14:17:58;;;;;;;45.25;23.65;;;;;;;4.28;50.18;97348.25;2068386;28;20244;-58
2022/12/17 14:18:59;;;;;;;50.50;24.40;;;;;;;3.37;51.85;97354.88;2064372;28;20197;-59
2022/12/17 14:20:14;;;;;;;46.78;23.92;;;;;;;3.68;51.11;97353.00;2065070;28;20202;-58
2022/12/17 14:21:17;;;;;;;47.85;24.90;;;;;;;3.18;52.33;97343.78;2067818;28;20231;-59
2022/12/17 14:22:28;;;;;;;47.17;24.75;;;;;;;3.37;52.81;97363.47;2068805;28;20224;-59
2022/12/17 14:23:32;;;;;;;52.30;25.73;;;;;;;3.23;52.71;97362.69;2064781;28;20221;-59
2022/12/17 14:24:37;;;;;;;46.40;26.15;;;;;;;2.64;53.18;97356.81;2067361;28;20225;-58
2022/12/17 14:25:41;;;;;;;49.72;26.38;;;;;;;2.67;53.71;97357.69;2069131;28;20213;-59
2022/12/17 14:26:59;;;;;;;54.47;26.52;;;;;;;2.58;54.00;97363.72;2068463;28;20204;-58
2022/12/17 14:28:23;;;;;;;55.65;27.02;;;;;;;3.24;53.03;97361.81;2066415;28;20230;-59
2022/12/17 14:29:31;;;;;;;63.80;27.88;;;;;;;3.12;53.16;97364.44;2067764;28;20630;-59
2022/12/17 14:30:39;;;;;;;49.28;27.20;;;;;;;2.32;53.63;97365.47;2067348;28;20208;-58
2022/12/17 14:32:20;;;;;;;58.60;27.80;;;;;;;2.25;54.71;97364.59;2069011;28;20240;-59
2022/12/17 14:33:29;;;;;;;51.58;27.13;;;;;;;1.54;55.54;97357.66;2070523;28;20256;-59
2022/12/17 14:34:41;;;;;;;57.75;28.90;;;;;;;1.68;56.30;97360.25;2070399;28;20297;-58
2022/12/17 14:35:51;;;;;;;48.42;27.25;;;;;;;1.44;56.64;97335.31;2067553;28;20297;-59
2022/12/17 14:36:59;;;;;;;54.28;29.83;;;;;;;1.36;57.27;97353.31;2076147;28;20209;-58
2022/12/17 14:38:01;;;;;;;56.03;28.30;;;;;;;1.00;58.25;97369.47;2072361;28;20307;-58
2022/12/17 14:39:23;;;;;;;53.50;28.55;;;;;;;0.27;59.33;97371.59;2066035;28;20245;-59
2022/12/17 14:40:25;;;;;;;51.47;25.73;;;;;;;0.88;59.17;97360.81;2066421;28;20713;-60
2022/12/17 14:42:59;;;;;;;53.65;27.50;;;;;;;0.42;58.90;97366.56;2066193;28;20795;-58
2022/12/17 14:44:02;;;;;;;51.10;27.27;;;;;;;0.54;59.49;97362.34;2068814;28;20646;-58
2022/12/17 14:45:24;;;;;;;55.78;28.35;;;;;;;0.50;58.85;97376.88;2068060;28;20666;-58
2022/12/17 14:46:28;;;;;;;51.20;25.55;;;;;;;0.44;59.21;97377.69;2063901;28;20198;-58
2022/12/17 14:47:34;;;;;;;58.65;28.42;;;;;;;0.34;59.36;97375.06;2066948;28;20241;-58
2022/12/17 14:50:01;;;;;;;60.00;28.52;;;;;;;0.29;60.57;97375.88;2068721;28;20603;-58
2022/12/17 14:51:05;;;;;;;51.50;27.08;;;;;;;0.12;59.91;97354.34;2067780;28;20229;-59
2022/12/17 14:52:13;;;;;;;54.95;27.05;;;;;;;0.00;61.40;97375.66;2064037;28;20258;-59
2022/12/17 14:53:25;;;;;;;51.13;27.85;;;;;;;-0.31;61.13;97367.63;2063941;28;20225;-57
2022/12/17 14:54:29;;;;;;;53.78;27.77;;;;;;;-0.47;61.94;97371.78;2074982;28;20197;-59
2022/12/17 14:55:36;;;;;;;59.75;28.10;;;;;;;-0.46;62.49;97376.03;2074756;28;20316;-59
2022/12/17 14:56:39;;;;;;;48.03;26.80;;;;;;;-0.67;62.09;97363.84;2068972;28;20851;-59
2022/12/17 14:57:41;;;;;;;56.60;29.33;;;;;;;-0.73;62.18;97374.03;2067894;28;20224;-59
2022/12/17 14:58:46;;;;;;;59.80;27.67;;;;;;;-0.74;63.04;97370.59;2065674;28;20213;-59
2022/12/17 14:59:49;;;;;;;60.53;28.40;;;;;;;-0.94;63.58;97367.81;2068221;28;20233;-59
2022/12/17 15:00:56;;;;;;;65.28;30.30;;;;;;;-1.10;64.38;97371.88;2067846;28;20223;-59
2022/12/17 15:02:25;;;;;;;54.53;26.75;;;;;;;-1.76;65.78;97358.16;2069267;28;20201;-59
2022/12/17 15:03:30;;;;;;;52.83;28.80;;;;;;;-1.55;65.77;97378.97;2064223;28;20218;-60
2022/12/17 15:04:37;;;;;;;58.70;29.00;;;;;;;-1.52;66.04;97384.13;2063925;28;20195;-60
2022/12/17 15:05:38;;;;;;;59.45;27.83;;;;;;;-1.72;66.23;97380.41;2064170;28;20202;-60
2022/12/17 15:06:40;;;;;;;56.05;28.75;;;;;;;-1.84;66.25;97378.47;2064215;28;20700;-63
2022/12/17 15:07:42;;;;;;;63.83;31.10;;;;;;;-2.21;67.40;97352.28;2068138;28;20285;-60
2022/12/17 15:08:47;;;;;;;52.90;28.55;;;;;;;-2.22;67.39;97383.81;2067777;28;20293;-58
2022/12/17 15:09:48;;;;;;;55.25;28.73;;;;;;;-2.35;68.72;97377.63;2063840;28;20209;-59
2022/12/17 15:10:50;;;;;;;48.95;27.08;;;;;;;-2.38;68.56;97386.13;2063711;28;20198;-59
2022/12/17 15:11:51;;;;;;;57.67;28.95;;;;;;;-2.67;69.22;97381.31;2066962;28;20281;-58
2022/12/17 15:12:53;;;;;;;49.60;26.85;;;;;;;-2.69;69.13;97388.09;2067738;28;20228;-59
2022/12/17 15:13:54;;;;;;;67.72;30.90;;;;;;;-2.92;70.35;97385.09;2067850;28;20446;-59
2022/12/17 15:14:57;;;;;;;60.13;28.55;;;;;;;-3.02;70.09;97384.03;2068291;28;20538;-59
2022/12/17 15:15:58;;;;;;;71.25;31.25;;;;;;;-3.15;70.60;97376.94;2067803;28;20202;-58
2022/12/17 15:17:00;;;;;;;56.72;29.48;;;;;;;-3.26;71.42;97386.94;2067243;28;20194;-58
2022/12/17 15:18:02;;;;;;;54.90;27.85;;;;;;;-3.32;71.94;97386.81;2062788;28;20225;-59
2022/12/17 15:19:03;;;;;;;61.75;31.45;;;;;;;-3.45;72.07;97391.63;2071195;28;20208;-58
2022/12/17 15:20:05;;;;;;;58.90;28.90;;;;;;;-3.51;72.16;97385.53;2063779;28;20237;-58
2022/12/17 15:21:09;;;;;;;52.63;27.58;;;;;;;-3.66;72.90;97398.81;2065332;28;20198;-59
2022/12/17 15:22:16;;;;;;;56.22;28.85;;;;;;;-3.82;73.15;97392.47;2067240;28;20285;-58
2022/12/17 15:23:20;;;;;;;63.30;29.13;;;;;;;-4.15;73.59;97362.75;2063234;28;20733;-58
2022/12/17 15:24:21;;;;;;;56.85;29.20;;;;;;;-3.98;73.80;97396.34;2064449;28;20287;-59
2022/12/17 15:25:23;;;;;;;59.05;30.85;;;;;;;-4.08;74.36;97390.16;2064992;28;20699;-59
2022/12/17 15:26:24;;;;;;;61.03;30.17;;;;;;;-4.18;74.92;97394.16;2067071;28;20205;-58
2022/12/17 15:27:25;;;;;;;60.35;29.77;;;;;;;-4.20;74.87;97390.72;2066054;28;20291;-59
2022/12/17 15:28:27;;;;;;;64.43;30.52;;;;;;;-4.33;75.43;97401.41;2065089;28;20739;-59
2022/12/17 15:29:30;;;;;;;64.80;31.38;;;;;;;-4.40;76.03;97392.75;2065835;28;20591;-58
2022/12/17 15:30:32;;;;;;;65.88;30.13;;;;;;;-4.52;76.56;97400.06;2067016;28;20211;-61
2022/12/17 15:31:33;;;;;;;63.97;31.35;;;;;;;-4.63;76.70;97392.16;2065763;28;20309;-59
2022/12/17 15:32:36;;;;;;;63.40;30.85;;;;;;;-4.68;76.54;97397.13;2066284;28;20288;-58
2022/12/17 15:33:38;;;;;;;60.00;28.67;;;;;;;-4.85;77.12;97383.91;2065826;28;20329;-58
2022/12/17 15:34:39;;;;;;;61.15;28.50;;;;;;;-4.84;77.35;97405.16;2063571;28;20326;-59
2022/12/17 15:35:41;;;;;;;67.47;30.60;;;;;;;-4.97;77.81;97393.75;2064255;28;20806;-58
2022/12/17 15:36:43;;;;;;;58.90;28.00;;;;;;;-5.02;78.08;97398.72;2067267;28;20195;-61
2022/12/17 15:37:44;;;;;;;57.25;29.13;;;;;;;-5.09;78.02;97395.13;2065982;28;20234;-59
2022/12/17 15:38:45;;;;;;;61.17;29.95;;;;;;;-5.12;78.08;97400.16;2063585;28;20673;-59
2022/12/17 15:39:47;;;;;;;61.63;31.77;;;;;;;-5.18;78.40;97399.97;2064552;28;20230;-59
2022/12/17 15:40:51;;;;;;;63.13;29.17;;;;;;;-5.27;78.51;97392.94;2067932;28;20791;-59
2022/12/17 15:43:16;;;;;;;61.65;29.35;;;;;;;-5.39;79.28;97400.19;2065060;28;20241;-59
2022/12/17 15:44:18;;;;;;;61.95;27.58;;;;;;;-5.39;79.34;97399.34;2067542;28;20200;-59
2022/12/17 15:45:19;;;;;;;65.57;29.83;;;;;;;-5.45;79.44;97398.34;2065506;28;20238;-59
2022/12/17 15:46:20;;;;;;;65.07;31.35;;;;;;;-5.46;79.89;97411.88;2066682;28;20628;-58
2022/12/17 15:47:25;;;;;;;57.45;28.98;;;;;;;-5.50;80.15;97411.72;2066789;28;20282;-58
2022/12/17 15:48:27;;;;;;;71.10;31.00;;;;;;;-5.55;80.09;97415.81;2066950;28;20589;-59
2022/12/17 15:49:28;;;;;;;77.28;31.55;;;;;;;-5.63;80.68;97416.44;2067893;28;20201;-59
2022/12/17 15:50:30;;;;;;;65.07;30.17;;;;;;;-5.70;81.05;97408.56;2066158;28;20204;-59
